Time;durP1;ratioP1;P1;durP2;ratioP2;P2;SDS_P1;SDS_P2;PMS_P1;PMS_P2;Temp;Humidity;BMP_temperature;BMP_pressure;BME280_temperature;BME280_humidity;BME280_pressure;Samples;Min_cycle;Max_cycle;Signal;HPM_P1;HPM_P2
2023/05/15 00:00:22;;;;;;;9.52;6.72;;;10.60;99.90;;;;;;4886069;29;20034;-71
2023/05/15 05:01:42;;;;;;;6.15;4.30;;;13.00;99.90;;;;;;5672722;23;20116;-69
2023/05/15 05:04:08;;;;;;;9.43;5.32;;;13.20;99.90;;;;;;4902131;29;20385;-69
2023/05/15 05:06:33;;;;;;;9.10;5.30;;;13.40;99.90;;;;;;4882611;29;20041;-69
2023/05/15 05:08:59;;;;;;;6.95;5.00;;;13.50;99.90;;;;;;4875765;29;20203;-69
2023/05/15 05:11:25;;;;;;;6.10;4.55;;;13.50;99.90;;;;;;4906551;29;20036;-68
2023/05/15 05:13:50;;;;;;;8.57;5.05;;;13.60;99.90;;;;;;4893805;29;20084;-68
2023/05/15 05:16:16;;;;;;;6.47;4.90;;;13.70;99.90;;;;;;4873328;29;20032;-69
2023/05/15 05:18:42;;;;;;;7.95;4.70;;;13.80;99.90;;;;;;4895625;29;20033;-69
2023/05/15 05:21:07;;;;;;;6.65;4.50;;;13.80;99.90;;;;;;4895686;29;20096;-68
2023/05/15 05:23:33;;;;;;;6.05;4.70;;;13.90;99.90;;;;;;4908381;29;20033;-68
2023/05/15 05:25:59;;;;;;;6.55;4.50;;;13.90;99.90;;;;;;4907749;29;20028;-68
2023/05/15 05:28:25;;;;;;;6.53;4.97;;;13.90;99.90;;;;;;4908087;29;20043;-68
2023/05/15 05:30:51;;;;;;;6.45;4.68;;;14.00;99.90;;;;;;4907577;29;20036;-68
2023/05/15 05:33:17;;;;;;;8.23;4.63;;;14.00;99.90;;;;;;4908015;29;20056;-68
2023/05/15 05:35:42;;;;;;;7.32;4.63;;;14.10;99.90;;;;;;4901115;29;20085;-68
2023/05/15 05:38:08;;;;;;;6.78;4.55;;;14.10;99.90;;;;;;4889118;29;20037;-69
2023/05/15 05:40:34;;;;;;;7.35;4.93;;;14.10;99.90;;;;;;4889361;29;20033;-70
2023/05/15 05:43:00;;;;;;;7.97;5.00;;;14.20;99.90;;;;;;4888788;29;20210;-69
2023/05/15 05:45:27;;;;;;;8.35;4.70;;;14.30;99.90;;;;;;4889204;29;20382;-68
2023/05/15 05:47:55;;;;;;;7.65;5.10;;;14.30;99.90;;;;;;4888552;29;20035;-68
2023/05/15 05:50:21;;;;;;;6.97;5.22;;;14.20;99.90;;;;;;4889175;29;20310;-68
2023/05/15 05:52:46;;;;;;;6.82;4.93;;;14.10;99.90;;;;;;4888693;29;20374;-69
2023/05/15 05:55:12;;;;;;;7.47;5.72;;;14.20;99.90;;;;;;4889087;29;20040;-69
2023/05/15 05:57:38;;;;;;;8.43;5.13;;;14.30;99.90;;;;;;4888934;29;20284;-68
2023/05/15 06:00:08;;;;;;;8.05;5.25;;;14.30;99.90;;;;;;4900791;29;20032;-69
2023/05/15 06:02:38;;;;;;;6.88;5.30;;;14.40;99.90;;;;;;4883139;29;20060;-68
2023/05/15 06:05:05;;;;;;;6.97;5.97;;;14.40;99.90;;;;;;4870121;29;20025;-69
2023/05/15 06:07:31;;;;;;;8.20;5.82;;;14.40;99.90;;;;;;4870104;29;20037;-68
2023/05/15 06:09:57;;;;;;;8.77;6.30;;;14.40;99.90;;;;;;4876767;29;20045;-69
2023/05/15 06:12:22;;;;;;;8.10;6.32;;;14.50;99.90;;;;;;4875403;29;20034;-68
2023/05/15 06:14:48;;;;;;;7.63;5.93;;;14.40;99.90;;;;;;4865330;29;20048;-68
2023/05/15 06:17:14;;;;;;;8.45;5.88;;;14.50;99.90;;;;;;4884848;29;20040;-69
2023/05/15 06:19:39;;;;;;;7.85;5.72;;;14.50;99.90;;;;;;4888451;29;20029;-69
2023/05/15 06:22:05;;;;;;;8.68;5.68;;;14.40;99.90;;;;;;4888249;29;20297;-69
2023/05/15 06:24:31;;;;;;;7.60;5.78;;;14.50;99.90;;;;;;4888901;29;20032;-69
2023/05/15 06:26:57;;;;;;;7.45;5.97;;;14.60;99.90;;;;;;4871195;29;20037;-70
2023/05/15 06:29:22;;;;;;;7.28;5.60;;;14.70;99.90;;;;;;4888552;29;20051;-68
2023/05/15 06:31:48;;;;;;;7.10;5.75;;;14.70;99.90;;;;;;4871116;29;20218;-68
2023/05/15 06:34:14;;;;;;;6.30;4.72;;;14.80;99.90;;;;;;4888667;29;20100;-69
2023/05/15 06:36:40;;;;;;;8.10;5.38;;;15.00;99.90;;;;;;4888376;29;20329;-68
2023/05/15 06:39:09;;;;;;;8.13;5.38;;;15.00;99.90;;;;;;4887840;29;20028;-68
2023/05/15 06:41:35;;;;;;;7.53;5.25;;;15.30;99.90;;;;;;4888399;29;20036;-68
2023/05/15 06:44:01;;;;;;;6.90;5.10;;;15.30;99.90;;;;;;4887975;29;20085;-68
2023/05/15 06:46:27;;;;;;;6.72;4.75;;;15.40;99.90;;;;;;4888352;29;20036;-68
2023/05/15 06:48:52;;;;;;;6.35;5.10;;;15.40;99.90;;;;;;4887877;29;20071;-68
2023/05/15 06:51:18;;;;;;;6.88;4.60;;;15.60;99.90;;;;;;4888241;29;20085;-67
2023/05/15 06:53:44;;;;;;;6.55;4.15;;;15.70;99.90;;;;;;4888382;29;20048;-67
2023/05/15 06:56:09;;;;;;;5.93;3.47;;;15.70;99.90;;;;;;4887710;29;20048;-67
2023/05/15 06:58:35;;;;;;;6.72;4.28;;;15.90;99.90;;;;;;4887953;29;20134;-68
2023/05/15 07:01:02;;;;;;;5.75;4.30;;;15.90;99.90;;;;;;4885310;29;20037;-67
2023/05/15 07:03:29;;;;;;;6.35;4.03;;;16.00;99.90;;;;;;4887895;29;20065;-67
2023/05/15 07:05:55;;;;;;;4.45;3.50;;;16.00;99.90;;;;;;4887873;29;20081;-67
2023/05/15 07:08:20;;;;;;;5.45;4.00;;;16.20;99.90;;;;;;4888237;29;20171;-68
2023/05/15 07:10:48;;;;;;;5.50;3.90;;;16.20;99.90;;;;;;4874736;29;20041;-68
2023/05/15 07:13:16;;;;;;;5.72;3.75;;;16.30;99.90;;;;;;4869612;29;20056;-67
2023/05/15 07:15:42;;;;;;;;;;;16.30;99.90;;;;;;4874247;29;20039;-69
2023/05/15 07:18:08;;;;;;;6.03;3.65;;;16.30;99.90;;;;;;4880018;29;19942;-69
2023/05/15 07:20:34;;;;;;;6.22;3.72;;;16.30;99.90;;;;;;4887791;29;20222;-69
2023/05/15 07:23:00;;;;;;;6.45;3.50;;;16.30;99.90;;;;;;4880896;29;20052;-68
2023/05/15 07:25:25;;;;;;;5.55;3.13;;;16.40;99.90;;;;;;4883591;29;20071;-68
2023/05/15 07:27:51;;;;;;;5.93;3.90;;;16.40;99.90;;;;;;4880020;29;20252;-68
2023/05/15 07:30:17;;;;;;;4.80;3.50;;;16.30;99.90;;;;;;4872522;29;20305;-69
2023/05/15 07:32:43;;;;;;;4.88;3.30;;;16.30;99.90;;;;;;4872590;29;20204;-69
2023/05/15 07:35:10;;;;;;;6.43;3.42;;;16.40;99.90;;;;;;4872167;29;20033;-68
2023/05/15 07:37:36;;;;;;;4.35;3.35;;;16.60;99.90;;;;;;4872906;29;20104;-69
2023/05/15 07:40:03;;;;;;;5.22;2.90;;;16.80;99.90;;;;;;4871762;29;20148;-68
2023/05/15 07:42:28;;;;;;;4.88;2.60;;;17.00;99.90;;;;;;4872410;29;20034;-68
2023/05/15 07:44:54;;;;;;;3.95;2.78;;;17.10;99.90;;;;;;4871861;29;20104;-69
2023/05/15 07:47:20;;;;;;;6.53;3.10;;;17.20;99.90;;;;;;4872663;29;20029;-69
2023/05/15 07:49:46;;;;;;;3.88;2.80;;;17.20;99.90;;;;;;4872604;29;20061;-68
2023/05/15 07:52:12;;;;;;;6.35;2.75;;;17.10;99.90;;;;;;4876430;29;20025;-68
2023/05/15 07:54:40;;;;;;;5.22;3.15;;;17.20;99.90;;;;;;4890757;29;20040;-68
2023/05/15 07:57:06;;;;;;;4.03;3.00;;;17.30;99.90;;;;;;4871196;29;20040;-68
2023/05/15 07:59:33;;;;;;;3.83;2.70;;;17.30;99.90;;;;;;4882747;29;20045;-69
2023/05/15 08:01:59;;;;;;;5.43;3.38;;;17.30;99.90;;;;;;4871147;29;20068;-69
2023/05/15 08:04:24;;;;;;;5.60;3.40;;;17.40;99.90;;;;;;4872309;29;20042;-69
2023/05/15 08:06:50;;;;;;;4.15;3.20;;;17.40;99.90;;;;;;4872382;29;20037;-69
2023/05/15 08:09:16;;;;;;;3.80;2.75;;;17.60;99.90;;;;;;4871802;29;20029;-68
2023/05/15 08:11:42;;;;;;;5.10;3.13;;;17.70;99.90;;;;;;4884646;29;20037;-69
2023/05/15 08:14:08;;;;;;;7.93;2.90;;;17.90;99.80;;;;;;4889846;29;20044;-69
2023/05/15 08:16:33;;;;;;;3.50;2.50;;;18.10;99.30;;;;;;4890602;29;20350;-69
2023/05/15 08:19:03;;;;;;;4.28;2.35;;;18.40;99.00;;;;;;4873208;29;20045;-69
2023/05/15 08:21:30;;;;;;;5.60;2.70;;;18.40;98.00;;;;;;4876482;29;20048;-69
2023/05/15 08:23:56;;;;;;;3.60;2.50;;;18.20;97.90;;;;;;4888583;29;20064;-69
2023/05/15 08:26:22;;;;;;;3.63;2.13;;;18.10;97.90;;;;;;4890224;29;20240;-70
2023/05/15 08:28:48;;;;;;;3.35;2.22;;;18.20;98.20;;;;;;4890449;29;20100;-69
2023/05/15 08:31:14;;;;;;;5.25;2.45;;;18.30;98.20;;;;;;4889921;29;20211;-69
2023/05/15 08:33:40;;;;;;;3.70;2.30;;;18.40;97.60;;;;;;4890468;29;20092;-69
2023/05/15 08:36:06;;;;;;;3.95;2.42;;;18.30;97.60;;;;;;4889838;29;20248;-67
2023/05/15 08:38:32;;;;;;;5.45;2.60;;;18.40;97.50;;;;;;4890038;29;20040;-70
2023/05/15 08:41:05;;;;;;;4.50;2.15;;;18.50;96.90;;;;;;4889848;29;20021;-69
2023/05/15 08:43:34;;;;;;;3.17;2.47;;;18.30;97.10;;;;;;4890055;29;20104;-69
2023/05/15 08:46:01;;;;;;;4.07;2.72;;;18.30;96.90;;;;;;4889699;29;20021;-68
2023/05/15 08:48:28;;;;;;;4.80;2.47;;;18.30;97.20;;;;;;4890120;29;20044;-68
2023/05/15 08:50:57;;;;;;;5.23;2.70;;;18.50;97.40;;;;;;4889345;29;20036;-68
2023/05/15 08:53:23;;;;;;;;;;;18.60;96.90;;;;;;4890372;29;20097;-68
2023/05/15 08:55:49;;;;;;;3.33;2.50;;;18.80;97.10;;;;;;4889870;29;19904;-68
2023/05/15 08:58:20;;;;;;;4.20;2.67;;;18.90;96.70;;;;;;4889256;29;20100;-68
2023/05/15 09:00:47;;;;;;;4.43;2.35;;;19.10;96.00;;;;;;4872062;29;20029;-68
2023/05/15 09:03:15;;;;;;;3.72;2.47;;;19.00;95.40;;;;;;4882973;29;20343;-68
2023/05/15 09:05:41;;;;;;;3.40;2.60;;;19.00;94.90;;;;;;4871815;29;20327;-69
2023/05/15 09:08:07;;;;;;;8.80;2.78;;;19.10;94.80;;;;;;4870622;29;20041;-68
2023/05/15 09:10:35;;;;;;;6.13;2.40;;;19.20;95.20;;;;;;4876800;29;20346;-68
2023/05/15 09:13:01;;;;;;;4.70;2.33;;;19.50;95.00;;;;;;4888345;29;20063;-68
2023/05/15 09:15:28;;;;;;;4.55;2.85;;;20.00;94.40;;;;;;4873108;29;20040;-68
2023/05/15 09:17:55;;;;;;;4.70;2.60;;;20.30;93.00;;;;;;4887053;29;20192;-68
2023/05/15 09:20:35;;;;;;;3.25;2.20;;;20.50;92.70;;;;;;4889246;29;20032;-68
2023/05/15 09:23:03;;;;;;;5.50;2.65;;;20.60;92.30;;;;;;4888699;29;20041;-68
2023/05/15 09:25:38;;;;;;;3.90;2.50;;;20.70;92.10;;;;;;4889506;29;20036;-69
2023/05/15 09:28:09;;;;;;;4.10;2.90;;;20.60;92.70;;;;;;4881036;29;20039;-68
2023/05/15 09:30:40;;;;;;;3.42;2.72;;;20.60;92.50;;;;;;4889036;29;20045;-69
2023/05/15 09:33:07;;;;;;;5.85;3.05;;;20.40;92.70;;;;;;4888746;29;20053;-69
2023/05/15 09:35:38;;;;;;;4.22;2.67;;;20.10;92.60;;;;;;4889404;29;20191;-67
2023/05/15 09:38:08;;;;;;;4.97;2.88;;;19.70;93.20;;;;;;4888650;29;20319;-67
2023/05/15 09:40:34;;;;;;;4.72;2.88;;;19.50;93.40;;;;;;4889018;29;20037;-70
2023/05/15 09:42:59;;;;;;;4.82;3.10;;;19.60;93.70;;;;;;4888756;29;20056;-70
2023/05/15 09:45:28;;;;;;;4.25;2.70;;;19.70;93.30;;;;;;4888992;29;20060;-70
2023/05/15 09:47:55;;;;;;;3.80;2.53;;;19.70;92.70;;;;;;4888665;29;20044;-70
2023/05/15 09:50:23;;;;;;;4.05;2.83;;;19.80;92.70;;;;;;4888425;29;20032;-69
2023/05/15 09:52:50;;;;;;;3.67;2.55;;;20.00;92.10;;;;;;4888952;29;20028;-69
2023/05/15 09:55:18;;;;;;;4.00;2.47;;;20.10;92.40;;;;;;4888448;29;20036;-69
2023/05/15 09:58:02;;;;;;;3.75;2.53;;;20.20;92.10;;;;;;4889049;29;20315;-67
2023/05/15 10:00:29;;;;;;;4.43;2.25;;;20.20;92.20;;;;;;4871717;29;20155;-67
2023/05/15 10:02:57;;;;;;;4.53;2.40;;;20.40;91.80;;;;;;4869500;29;20049;-68
2023/05/15 10:05:26;;;;;;;3.58;2.15;;;20.40;91.40;;;;;;4870210;29;20048;-67
2023/05/15 10:07:56;;;;;;;3.38;2.15;;;20.40;90.60;;;;;;4869973;29;20261;-68
2023/05/15 10:10:23;;;;;;;4.43;2.67;;;20.40;91.40;;;;;;4880623;29;20033;-67
2023/05/15 10:12:51;;;;;;;5.75;2.58;;;20.30;91.50;;;;;;4888806;29;20319;-68
2023/05/15 10:15:17;;;;;;;3.70;2.50;;;20.20;91.30;;;;;;4888136;29;20059;-69
2023/05/15 10:17:46;;;;;;;3.67;2.05;;;20.20;91.70;;;;;;4881876;29;20042;-72
2023/05/15 10:20:13;;;;;;;6.22;2.70;;;20.30;91.70;;;;;;4869574;29;20060;-68
2023/05/15 10:22:43;;;;;;;4.18;2.22;;;20.40;91.50;;;;;;4870452;29;20107;-67
2023/05/15 10:25:19;;;;;;;4.45;2.35;;;20.50;91.20;;;;;;4869742;29;20053;-71
2023/05/15 10:27:46;;;;;;;4.07;2.20;;;20.30;90.50;;;;;;4870106;29;20036;-68
2023/05/15 10:30:15;;;;;;;3.63;2.45;;;20.30;91.50;;;;;;4869231;29;20352;-67
2023/05/15 10:32:42;;;;;;;3.30;2.22;;;20.30;90.60;;;;;;4870183;29;20021;-69
2023/05/15 10:35:11;;;;;;;4.43;2.53;;;20.40;89.90;;;;;;4869243;29;20061;-68
2023/05/15 10:37:40;;;;;;;3.15;2.10;;;20.50;89.20;;;;;;4870219;29;20090;-68
2023/05/15 10:40:09;;;;;;;2.70;1.80;;;20.50;87.50;;;;;;4852957;29;20037;-68
2023/05/15 10:42:36;;;;;;;3.42;2.20;;;20.80;84.70;;;;;;4870175;29;20406;-70
2023/05/15 10:45:02;;;;;;;3.80;1.98;;;21.10;86.10;;;;;;4876192;29;20024;-69
2023/05/15 10:47:32;;;;;;;3.22;1.92;;;21.50;87.10;;;;;;4870253;29;20097;-70
2023/05/15 10:49:58;;;;;;;2.97;2.17;;;21.80;85.20;;;;;;4869629;29;20052;-70
2023/05/15 10:52:24;;;;;;;3.13;1.80;;;22.10;84.20;;;;;;4870177;29;20037;-69
2023/05/15 10:54:52;;;;;;;2.95;1.80;;;22.00;82.50;;;;;;4869780;29;20093;-69
2023/05/15 10:57:20;;;;;;;3.75;1.60;;;22.20;83.10;;;;;;4875670;29;20025;-69
2023/05/15 10:59:46;;;;;;;3.15;1.80;;;21.90;81.30;;;;;;4861531;29;20369;-68
2023/05/15 11:02:26;;;;;;;3.95;2.15;;;21.80;81.80;;;;;;4869543;29;20374;-69
2023/05/15 11:05:05;;;;;;;2.80;1.40;;;22.00;81.60;;;;;;4873326;29;20335;-70
2023/05/15 11:07:30;;;;;;;4.10;1.67;;;22.30;81.30;;;;;;4873456;29;20056;-69
2023/05/15 11:09:57;;;;;;;5.40;1.77;;;22.20;79.60;;;;;;4879536;29;20222;-68
2023/05/15 11:12:23;;;;;;;3.55;1.75;;;22.10;80.00;;;;;;4884689;29;20033;-69
2023/05/15 11:15:11;;;;;;;2.33;1.63;;;21.80;81.40;;;;;;4891839;29;20104;-71
2023/05/15 11:17:36;;;;;;;3.47;2.00;;;21.60;79.20;;;;;;4868506;29;20045;-70
2023/05/15 11:20:03;;;;;;;7.03;2.15;;;21.50;81.00;;;;;;4890939;29;20097;-69
2023/05/15 11:22:34;;;;;;;3.97;2.00;;;21.80;82.10;;;;;;4891425;29;20037;-69
2023/05/15 11:25:05;;;;;;;4.18;1.90;;;21.90;81.70;;;;;;4891029;29;20037;-70
2023/05/15 11:27:46;;;;;;;3.55;2.40;;;22.00;81.50;;;;;;4891547;29;20041;-70
2023/05/15 11:30:12;;;;;;;3.17;2.08;;;21.70;80.90;;;;;;4890902;29;20036;-69
2023/05/15 11:32:58;;;;;;;2.60;1.65;;;21.80;80.50;;;;;;4874012;29;20272;-69
2023/05/15 11:35:41;;;;;;;3.10;1.50;;;22.10;81.10;;;;;;4882567;29;20039;-69
2023/05/15 11:38:29;;;;;;;3.78;1.48;;;23.40;77.20;;;;;;4874293;29;20065;-69
2023/05/15 11:40:59;;;;;;;5.32;1.70;;;25.10;75.50;;;;;;4871754;29;20044;-69
2023/05/15 11:43:32;;;;;;;4.22;1.50;;;25.30;73.50;;;;;;4881484;29;20045;-69
2023/05/15 11:46:19;;;;;;;2.63;1.30;;;26.20;72.20;;;;;;4872034;29;20040;-69
2023/05/15 11:48:46;;;;;;;3.10;1.35;;;27.50;67.50;;;;;;4811472;29;20062;-70
2023/05/15 11:51:28;;;;;;;5.68;1.80;;;27.30;65.70;;;;;;4815461;29;20109;-69
2023/05/15 11:54:01;;;;;;;3.20;1.50;;;26.10;67.90;;;;;;4815184;29;20070;-70
2023/05/15 11:56:27;;;;;;;3.17;1.70;;;25.10;68.50;;;;;;4804132;29;20069;-69
2023/05/15 11:59:01;;;;;;;2.38;1.40;;;24.80;69.40;;;;;;4799301;29;20080;-70
2023/05/15 12:01:40;;;;;;;3.53;1.58;;;25.10;70.50;;;;;;4797325;29;20043;-69
2023/05/15 12:04:18;;;;;;;2.53;1.20;;;25.80;68.50;;;;;;4801752;29;20332;-69
2023/05/15 12:06:46;;;;;;;3.58;1.70;;;27.20;67.50;;;;;;4794550;29;20334;-76
2023/05/15 12:09:16;;;;;;;2.83;1.48;;;29.00;64.20;;;;;;4807412;29;20038;-73
2023/05/15 12:11:50;;;;;;;2.03;1.42;;;29.70;62.50;;;;;;4815266;29;20043;-73
2023/05/15 12:14:16;;;;;;;1.77;1.10;;;30.80;61.10;;;;;;4814275;29;20042;-71
2023/05/15 12:16:42;;;;;;;3.00;1.30;;;31.40;59.90;;;;;;4815338;29;20053;-71
2023/05/15 12:19:08;;;;;;;3.13;1.38;;;30.70;59.30;;;;;;4809696;29;20054;-71
2023/05/15 12:21:34;;;;;;;3.67;1.45;;;30.00;59.10;;;;;;4797306;29;20264;-70
2023/05/15 12:24:00;;;;;;;3.22;1.58;;;28.50;60.30;;;;;;4796728;29;20039;-70
2023/05/15 12:26:28;;;;;;;7.78;1.75;;;28.80;61.20;;;;;;4854470;29;20117;-72
2023/05/15 12:28:55;;;;;;;5.70;1.60;;;30.30;59.10;;;;;;4871463;29;20056;-71
2023/05/15 12:31:21;;;;;;;5.00;1.92;;;29.90;58.60;;;;;;4886954;29;20033;-70
2023/05/15 12:33:46;;;;;;;2.78;1.50;;;28.80;59.00;;;;;;4890225;29;20330;-69
2023/05/15 12:36:12;;;;;;;3.90;1.63;;;27.90;60.00;;;;;;4890229;29;20264;-70
2023/05/15 12:38:39;;;;;;;4.78;1.58;;;26.80;61.80;;;;;;4890471;29;20021;-69
2023/05/15 12:41:05;;;;;;;2.33;1.60;;;26.10;62.20;;;;;;4889521;29;20059;-70
2023/05/15 12:43:31;;;;;;;6.05;2.05;;;25.70;63.00;;;;;;4889837;29;20314;-69
2023/05/15 12:45:57;;;;;;;11.93;2.50;;;25.80;64.10;;;;;;4889736;29;20041;-69
2023/05/15 12:48:29;;;;;;;10.82;1.80;;;27.10;63.60;;;;;;4889999;29;20037;-69
2023/05/15 12:50:55;;;;;;;5.97;1.70;;;29.30;60.60;;;;;;4889693;29;20033;-70
2023/05/15 12:53:21;;;;;;;5.22;1.70;;;28.80;61.40;;;;;;4890350;29;20044;-70
2023/05/15 12:55:47;;;;;;;6.07;1.70;;;27.10;62.30;;;;;;4889609;29;20084;-69
2023/05/15 12:58:17;;;;;;;10.68;2.20;;;25.60;64.90;;;;;;4879029;29;20049;-70
2023/05/15 13:00:47;;;;;;;10.65;2.22;;;24.60;67.80;;;;;;4854862;29;20185;-70
2023/05/15 13:03:13;;;;;;;4.88;2.40;;;23.90;68.90;;;;;;4871303;29;20280;-71
2023/05/15 13:05:42;;;;;;;4.95;1.65;;;24.30;69.00;;;;;;4871265;29;20072;-71
2023/05/15 13:08:08;;;;;;;3.20;1.60;;;24.70;67.10;;;;;;4870547;29;20033;-71
2023/05/15 13:10:36;;;;;;;5.03;1.83;;;25.00;65.20;;;;;;4882918;29;20044;-71
2023/05/15 13:13:02;;;;;;;5.85;1.55;;;25.00;65.10;;;;;;4889238;29;20048;-71
2023/05/15 13:15:42;;;;;;;2.63;1.50;;;25.70;65.70;;;;;;4889684;29;20099;-72
2023/05/15 13:18:16;;;;;;;2.92;1.60;;;27.70;61.70;;;;;;4879011;29;20104;-74
2023/05/15 13:20:46;;;;;;;2.03;1.30;;;27.00;61.90;;;;;;4870774;29;20242;-70
2023/05/15 13:23:15;;;;;;;3.25;1.42;;;26.60;62.00;;;;;;4871356;29;20096;-70
2023/05/15 13:25:41;;;;;;;3.63;1.85;;;26.00;63.00;;;;;;4870331;29;20045;-71
2023/05/15 13:28:09;;;;;;;4.45;1.88;;;25.30;64.40;;;;;;4870113;29;20214;-72
2023/05/15 13:30:35;;;;;;;;;;;25.00;65.50;;;;;;4870900;29;20030;-71
2023/05/15 13:33:01;;;;;;;3.85;1.98;;;24.50;66.10;;;;;;4870334;29;19914;-71
2023/05/15 13:35:27;;;;;;;3.88;1.98;;;24.00;67.10;;;;;;4870657;29;20044;-70
2023/05/15 13:37:53;;;;;;;3.88;2.05;;;24.00;67.20;;;;;;4870624;29;20207;-73
2023/05/15 13:40:18;;;;;;;2.72;1.90;;;24.20;67.60;;;;;;4870168;29;20060;-71
2023/05/15 13:42:44;;;;;;;5.13;2.10;;;25.80;65.00;;;;;;4870655;29;20025;-70
2023/05/15 13:45:12;;;;;;;6.45;2.00;;;25.80;63.50;;;;;;4869706;29;20040;-71
2023/05/15 13:47:39;;;;;;;3.75;2.15;;;25.40;65.60;;;;;;4870632;29;20089;-70
2023/05/15 13:50:22;;;;;;;3.90;2.40;;;24.90;65.20;;;;;;4869936;29;20030;-71
2023/05/15 13:52:48;;;;;;;3.67;2.00;;;24.10;65.80;;;;;;4878661;29;20029;-71
2023/05/15 13:55:14;;;;;;;3.72;2.53;;;23.70;67.80;;;;;;4888061;29;20045;-70
2023/05/15 13:57:41;;;;;;;3.20;2.25;;;23.30;70.40;;;;;;4888764;29;20025;-71
2023/05/15 14:00:11;;;;;;;4.15;2.78;;;23.10;69.70;;;;;;4888464;29;20214;-70
2023/05/15 14:02:41;;;;;;;4.22;2.33;;;22.90;70.40;;;;;;4888895;29;20037;-70
2023/05/15 14:05:08;;;;;;;4.05;2.67;;;22.60;70.20;;;;;;4888366;29;20032;-70
2023/05/15 14:07:34;;;;;;;2.70;2.30;;;22.30;71.90;;;;;;4889087;29;20045;-72
2023/05/15 14:10:00;;;;;;;2.72;2.17;;;22.20;71.60;;;;;;4888378;29;20330;-71
2023/05/15 14:12:26;;;;;;;6.28;2.65;;;22.10;72.60;;;;;;4888286;29;20033;-70
2023/05/15 14:14:51;;;;;;;4.22;2.35;;;22.10;71.80;;;;;;4888641;29;20348;-70
2023/05/15 14:17:17;;;;;;;4.03;2.60;;;22.40;72.20;;;;;;4887681;29;20049;-69
2023/05/15 14:19:43;;;;;;;4.47;2.10;;;22.40;71.40;;;;;;4888705;29;20100;-69
2023/05/15 14:22:09;;;;;;;4.88;2.67;;;22.60;72.50;;;;;;4888100;29;20041;-70
2023/05/15 14:24:35;;;;;;;5.38;2.50;;;23.00;71.80;;;;;;4888853;29;20036;-71
2023/05/15 14:27:01;;;;;;;3.20;2.10;;;23.10;70.80;;;;;;4887771;29;20037;-70
2023/05/15 14:29:27;;;;;;;4.13;2.30;;;23.20;70.80;;;;;;4889145;29;20033;-71
2023/05/15 14:31:52;;;;;;;3.15;2.03;;;23.10;71.30;;;;;;4888655;29;20041;-70
2023/05/15 14:34:21;;;;;;;3.92;2.60;;;23.20;72.60;;;;;;4872006;29;20093;-70
2023/05/15 14:36:47;;;;;;;;;;;23.10;71.80;;;;;;4890543;29;20260;-71
2023/05/15 14:39:16;;;;;;;2.83;2.08;;;22.90;72.80;;;;;;4892016;29;20574;-71
2023/05/15 14:41:43;;;;;;;3.92;2.63;;;22.50;73.80;;;;;;4892440;29;20033;-71
2023/05/15 14:44:09;;;;;;;4.85;2.25;;;22.60;73.70;;;;;;4891404;29;20051;-71
2023/05/15 14:46:37;;;;;;;4.03;2.40;;;22.70;74.00;;;;;;4890911;29;20048;-71
2023/05/15 14:49:04;;;;;;;3.42;2.38;;;22.90;74.20;;;;;;4887117;29;20072;-70
2023/05/15 14:51:30;;;;;;;5.05;2.50;;;23.20;72.30;;;;;;4892397;29;20296;-72
2023/05/15 14:53:56;;;;;;;4.22;2.20;;;23.80;71.50;;;;;;4891751;29;20100;-71
2023/05/15 14:56:22;;;;;;;4.53;2.35;;;24.10;70.60;;;;;;4881981;29;20219;-72
2023/05/15 14:58:48;;;;;;;3.60;2.38;;;24.20;70.30;;;;;;4889284;29;20032;-71
2023/05/15 15:01:15;;;;;;;3.53;2.25;;;24.70;70.10;;;;;;4891385;29;20051;-71
2023/05/15 15:03:43;;;;;;;4.82;2.30;;;25.80;68.30;;;;;;4890778;29;20049;-71
2023/05/15 15:06:09;;;;;;;4.50;2.00;;;27.00;65.10;;;;;;4873307;29;20060;-72
2023/05/15 15:08:35;;;;;;;3.03;1.88;;;26.60;63.80;;;;;;4873598;29;20303;-72
2023/05/15 15:11:01;;;;;;;2.88;1.90;;;26.60;64.20;;;;;;4888303;29;20089;-73
2023/05/15 15:13:28;;;;;;;2.83;1.88;;;27.00;63.40;;;;;;4891910;29;20175;-71
2023/05/15 15:15:54;;;;;;;3.53;1.90;;;25.90;64.30;;;;;;4891117;29;20184;-71
2023/05/15 15:18:20;;;;;;;3.17;1.55;;;24.90;65.60;;;;;;4879658;29;20030;-71
2023/05/15 15:20:47;;;;;;;3.25;1.90;;;23.90;67.60;;;;;;4874071;29;20334;-71
2023/05/15 15:23:13;;;;;;;3.65;1.80;;;23.00;68.10;;;;;;4891394;29;20052;-72
2023/05/15 15:25:39;;;;;;;3.15;1.92;;;22.30;69.20;;;;;;4891421;29;20231;-71
2023/05/15 15:28:04;;;;;;;3.78;1.75;;;21.70;73.00;;;;;;4891111;29;20040;-72
2023/05/15 15:30:30;;;;;;;3.03;1.70;;;21.30;73.40;;;;;;4891600;29;20044;-71
2023/05/15 15:32:56;;;;;;;3.85;2.15;;;21.30;75.10;;;;;;4891121;29;20051;-71
2023/05/15 15:35:22;;;;;;;3.65;1.70;;;21.50;74.60;;;;;;4891499;29;20047;-71
2023/05/15 15:37:48;;;;;;;3.03;1.98;;;21.80;75.00;;;;;;4891254;29;20060;-71
2023/05/15 15:40:14;;;;;;;5.85;2.05;;;22.10;76.00;;;;;;4891096;29;20033;-71
2023/05/15 15:42:39;;;;;;;3.05;2.20;;;22.50;76.10;;;;;;4874825;29;20060;-70
2023/05/15 15:45:05;;;;;;;5.22;2.13;;;22.80;74.70;;;;;;4890748;29;20043;-71
2023/05/15 15:47:31;;;;;;;3.13;2.10;;;22.70;75.80;;;;;;4890835;29;20033;-72
2023/05/15 15:49:58;;;;;;;3.17;2.22;;;22.20;76.30;;;;;;4890399;29;20228;-71
2023/05/15 15:52:24;;;;;;;3.05;2.30;;;21.80;77.50;;;;;;4890933;29;20116;-72
2023/05/15 15:54:49;;;;;;;6.57;3.00;;;21.20;78.70;;;;;;4891627;29;20036;-72
2023/05/15 15:57:16;;;;;;;5.70;3.17;;;20.60;79.70;;;;;;4873765;29;20036;-71
2023/05/15 15:59:42;;;;;;;4.35;3.05;;;20.00;81.30;;;;;;4891063;29;20029;-70
2023/05/15 16:02:08;;;;;;;5.20;2.95;;;19.50;80.50;;;;;;4890167;29;20109;-70
2023/05/15 16:04:35;;;;;;;4.97;2.95;;;19.20;80.40;;;;;;4891010;29;20427;-71
2023/05/15 16:07:01;;;;;;;4.57;3.05;;;19.00;80.90;;;;;;4890339;29;20036;-71
2023/05/15 16:09:27;;;;;;;4.60;3.22;;;18.70;85.20;;;;;;4890729;29;20094;-71
2023/05/15 16:11:53;;;;;;;5.22;2.92;;;18.40;90.00;;;;;;4890929;29;20299;-72
2023/05/15 16:14:20;;;;;;;4.72;2.67;;;18.00;88.70;;;;;;4890130;29;20044;-71
2023/05/15 16:16:45;;;;;;;3.75;2.80;;;17.70;87.80;;;;;;4874003;29;20036;-71
2023/05/15 16:19:12;;;;;;;4.30;2.67;;;17.50;87.50;;;;;;4890042;29;20029;-70
2023/05/15 16:21:38;;;;;;;4.57;2.80;;;17.40;89.40;;;;;;4878254;29;20049;-70
2023/05/15 16:24:04;;;;;;;6.57;3.60;;;17.40;90.20;;;;;;4871576;29;20096;-70
2023/05/15 16:26:30;;;;;;;4.90;3.60;;;17.40;89.80;;;;;;4872262;29;20033;-71
2023/05/15 16:28:56;;;;;;;5.43;3.83;;;17.50;88.60;;;;;;4871781;29;20312;-71
2023/05/15 16:31:22;;;;;;;6.22;4.20;;;17.10;91.70;;;;;;4871864;29;20063;-69
2023/05/15 16:33:49;;;;;;;6.82;4.53;;;16.70;92.70;;;;;;4871938;29;20041;-69
2023/05/15 16:36:15;;;;;;;7.00;4.35;;;16.50;92.90;;;;;;4871606;29;20021;-71
2023/05/15 16:38:41;;;;;;;5.70;4.10;;;16.40;93.10;;;;;;4871790;29;20097;-70
2023/05/15 16:41:07;;;;;;;5.30;3.17;;;16.30;92.60;;;;;;4870961;29;20033;-69
2023/05/15 16:43:39;;;;;;;6.18;3.22;;;16.30;92.70;;;;;;4871315;29;20033;-70
2023/05/15 16:46:05;;;;;;;5.18;2.80;;;16.30;91.90;;;;;;4871059;29;20261;-70
2023/05/15 16:48:31;;;;;;;4.55;2.90;;;16.30;91.50;;;;;;4886039;29;20048;-70
2023/05/15 16:50:57;;;;;;;4.30;2.67;;;16.20;91.80;;;;;;4871872;29;20315;-71
2023/05/15 16:53:22;;;;;;;4.03;2.55;;;16.30;91.60;;;;;;4854593;29;20262;-72
2023/05/15 16:55:48;;;;;;;4.07;2.30;;;16.40;91.40;;;;;;4854958;29;20056;-72
2023/05/15 16:58:14;;;;;;;3.58;2.17;;;16.60;91.00;;;;;;4871010;29;20037;-71
2023/05/15 17:00:40;;;;;;;3.05;2.20;;;16.70;90.60;;;;;;4871504;29;20041;-72
2023/05/15 17:03:06;;;;;;;2.70;1.92;;;16.80;90.90;;;;;;4870641;29;20045;-70
2023/05/15 17:05:32;;;;;;;3.75;1.90;;;17.00;90.10;;;;;;4871150;29;20071;-73
2023/05/15 17:07:58;;;;;;;3.30;2.30;;;17.10;89.90;;;;;;4871320;29;20044;-72
2023/05/15 17:10:24;;;;;;;3.05;1.90;;;17.30;89.10;;;;;;4881777;29;20688;-72
2023/05/15 17:12:50;;;;;;;3.60;1.95;;;17.50;89.90;;;;;;4889977;29;20108;-71
2023/05/15 17:15:15;;;;;;;3.15;1.75;;;17.90;88.60;;;;;;4889110;29;20085;-71
2023/05/15 17:17:41;;;;;;;3.72;2.03;;;18.30;87.80;;;;;;4889698;29;20033;-70
2023/05/15 17:20:08;;;;;;;4.28;2.13;;;18.60;85.40;;;;;;4889237;29;20033;-71
2023/05/15 17:22:33;;;;;;;4.97;2.25;;;19.00;83.90;;;;;;4889619;29;20037;-73
2023/05/15 17:24:59;;;;;;;3.47;1.80;;;19.10;83.70;;;;;;4873086;29;20052;-72
2023/05/15 17:27:25;;;;;;;3.45;2.13;;;20.20;80.90;;;;;;4889491;29;20041;-71
2023/05/15 17:29:51;;;;;;;3.50;2.20;;;21.40;78.50;;;;;;4889829;29;20045;-70
2023/05/15 17:32:17;;;;;;;2.90;1.73;;;22.70;75.50;;;;;;4885362;29;20020;-71
2023/05/15 17:34:44;;;;;;;2.55;1.55;;;23.70;71.10;;;;;;4886727;29;20067;-71
2023/05/15 17:37:10;;;;;;;3.30;1.90;;;24.00;71.30;;;;;;4871811;29;20048;-70
2023/05/15 17:39:36;;;;;;;3.10;1.73;;;23.70;71.10;;;;;;4889821;29;20029;-72
2023/05/15 17:42:02;;;;;;;3.08;1.83;;;23.80;70.60;;;;;;4888941;29;20099;-71
2023/05/15 17:44:29;;;;;;;3.60;2.40;;;23.40;70.80;;;;;;4889304;29;20200;-70
2023/05/15 17:46:56;;;;;;;3.38;1.75;;;22.70;71.90;;;;;;4872774;29;20041;-71